Airfield :
LOGIN :

Register | Disclaimer

   EN    FR    IT 

 










Legend :    VFR   Marginal VFR   IFR   Intensive IFR   Very Intensive IFR
Visi :
Ceiling :
>= 8 km
>= 3000ft
5 to 8 km
1000 to 3000 ft
1500m to 5 km
500 to 1000 ft
800 to 1500m
200 to 500 ft
< 800m
< 200 ft
Symbols :   Thunderstorms  Fog  Heavy snow  Heavy precipitations  Wind > 20 kt
SIGMETs :     Misc.  Thunderstorms  Icing  Turbulence  Mountain Waves  Volcanic Ashes






- Airport Elevation : -11 ft
- IATA code : AMS


EHAM - Amsterdam Schiphol

CURRENT METAR :
  • 182225Z 23019KT 4000 TSRA FEW016CB BKN027 07/05 Q1011 BECMG 27018KT 9999 NSW

EXPIRED METARs :
  • 182155Z 22022KT 9999 -SHRA SCT016CB BKN025 BKN041 08/05 Q1011 TEMPO 6000 SHRA BECMG 27018KT
  • 182125Z 21022KT 180V240 9999 -RA SCT016 BKN018 BKN040 08/05 Q1012 TEMPO 6000 SCT018 BKN025
  • 182055Z 22020KT 9999 SCT016 BKN018 BKN040 08/05 Q1013 TEMPO 6000 SCT018 BKN025
  • 182025Z 21020KT 9999 FEW016 SCT018 BKN023 08/05 Q1013 NOSIG

TAF TAF EHAM
Valid from the 18 at 18:00 until the 20 at 00:00 UTC


181713Z 1818/1924 22021G31KT 9999 SCT025 BKN040
BECMG 1820/1822 6000 -RA BKN018
TEMPO 1821/1824 24025G38KT 4000 SHRA RA BKN014 SCT018CB
BECMG 1822/1901 29017KT 9999 NSW SCT025
BECMG 1911/1914 26018KT
BECMG 1915/1918 23012KT
BECMG 1919/1922 6000 -RADZ BKN014
TEMPO 1921/1924 4000 RADZ BKN009



MET'MAP, your aeronautical weather chart ! - Copyright ORBIFLY December 2007 - Disclaimer

ORBIFLY MET'MAP TEAM :

Programming & Development : Alexandra Zaïnal
Concept & original design : Baudouin d'Aumeries
Assistance for programming : Marc-Olivier Méhu
Technical & hardware support : Manuel Goepfert

Contact : metmap@orbifly.com




SOURCES & CREDITS :

   NOAA